Time;durP1;ratioP1;P1;durP2;ratioP2;P2;SDS_P1;SDS_P2;PMS_P1;PMS_P2;Temp;Humidity;BMP_temperature;BMP_pressure;BME280_temperature;BME280_humidity;BME280_pressure;Samples;Min_cycle;Max_cycle;Signal;HPM_P1;HPM_P2
2022/11/21 00:00:49;;;;;;;;;;;;;;;5.86;100.00;96995.50;5119580;28;19931;-60
2022/11/21 00:03:16;;;;;;;;;;;;;;;6.07;100.00;97004.38;5124035;28;19983;-59
2022/11/21 00:05:43;;;;;;;;;;;;;;;5.98;100.00;96992.66;5123874;28;19974;-60
2022/11/21 00:08:10;;;;;;;;;;;;;;;5.81;100.00;96987.50;5120514;28;19996;-61
2022/11/21 00:10:37;;;;;;;;;;;;;;;5.82;100.00;96986.44;5120025;28;19995;-61
2022/11/21 00:13:04;;;;;;;;;;;;;;;5.77;100.00;96989.06;5123254;28;19987;-61
2022/11/21 00:15:31;;;;;;;;;;;;;;;5.87;100.00;96981.22;5123644;28;19959;-61
2022/11/21 00:18:01;;;;;;;;;;;;;;;6.03;100.00;96981.31;5121324;28;19955;-61
2022/11/21 00:24:11;;;;;;;;;;;;;;;5.94;100.00;96979.13;5081005;28;19976;-58
2022/11/21 00:26:37;;;;;;;;;;;;;;;5.96;100.00;96984.19;5086412;28;20431;-59
2022/11/21 00:29:03;;;;;;;;;;;;;;;6.13;100.00;96982.16;5086487;28;19966;-59
2022/11/21 00:31:30;;;;;;;;;;;;;;;5.99;100.00;96981.03;5086575;28;19929;-59
2022/11/21 00:33:56;;;;;;;;;;;;;;;5.70;100.00;96972.59;5086361;28;20324;-59
2022/11/21 00:36:22;;;;;;;;;;;;;;;5.53;100.00;96971.13;5086300;28;19947;-60
2022/11/21 00:38:49;;;;;;;;;;;;;;;5.55;100.00;96979.63;5086101;28;19975;-59
2022/11/21 00:41:16;;;;;;;;;;;;;;;5.55;100.00;96979.63;5086439;28;20007;-59
2022/11/21 00:43:43;;;;;;;;;;;;;;;5.66;100.00;96992.72;5086432;28;19984;-60
2022/11/21 00:46:09;;;;;;;;;;;;;;;5.52;100.00;96982.78;5086168;28;19924;-59
2022/11/21 00:48:36;;;;;;;;;;;;;;;5.66;100.00;96982.13;5086390;28;19925;-60
2022/11/21 00:51:02;;;;;;;;;;;;;;;5.65;100.00;96985.00;5086237;28;19929;-59
2022/11/21 00:53:29;;;;;;;;;;;;;;;5.72;100.00;96986.41;5080368;28;20385;-59
2022/11/21 00:55:55;;;;;;;;;;;;;;;5.64;100.00;96996.63;5086045;28;19956;-59
2022/11/21 00:58:23;;;;;;;;;;;;;;;5.73;100.00;96992.47;5086196;28;19970;-59
2022/11/21 01:00:49;;;;;;;;;;;;;;;5.78;100.00;96989.88;5085965;28;19979;-60
2022/11/21 01:03:16;;;;;;;;;;;;;;;5.73;100.00;96990.63;5086139;28;19925;-60
2022/11/21 01:05:42;;;;;;;;;;;;;;;5.68;100.00;96992.44;5085830;28;19951;-60
2022/11/21 01:08:08;;;;;;;;;;;;;;;5.72;100.00;96990.88;5085703;28;19920;-59
2022/11/21 01:10:35;;;;;;;;;;;;;;;5.71;100.00;96984.78;5085734;28;20024;-60
2022/11/21 01:13:01;;;;;;;;;;;;;;;5.79;100.00;96986.16;5085786;28;19988;-61
2022/11/21 01:15:29;;;;;;;;;;;;;;;5.67;100.00;96981.03;5085726;28;19967;-59
2022/11/21 01:17:55;;;;;;;;;;;;;;;5.72;100.00;96982.94;5085546;28;19935;-59
2022/11/21 01:20:22;;;;;;;;;;;;;;;5.81;100.00;96984.06;5085517;28;19935;-59
2022/11/21 01:22:48;;;;;;;;;;;;;;;5.81;100.00;96984.88;5079604;28;19961;-59
2022/11/21 01:25:14;;;;;;;;;;;;;;;5.75;100.00;96983.22;5085517;28;19924;-60
2022/11/21 01:27:41;;;;;;;;;;;;;;;5.83;100.00;96979.28;5085315;28;19940;-60
2022/11/21 01:30:07;;;;;;;;;;;;;;;5.68;100.00;96979.19;5077049;28;19959;-60
2022/11/21 01:32:35;;;;;;;;;;;;;;;5.68;100.00;96976.53;5085221;28;19967;-60
2022/11/21 01:35:01;;;;;;;;;;;;;;;5.86;100.00;96979.63;5074319;28;19992;-61
2022/11/21 01:37:28;;;;;;;;;;;;;;;5.92;100.00;96985.75;5071745;28;19992;-60
2022/11/21 01:39:56;;;;;;;;;;;;;;;5.95;100.00;96974.63;5071955;28;19960;-59
2022/11/21 01:42:22;;;;;;;;;;;;;;;5.95;100.00;96982.59;5072089;28;19926;-59
2022/11/21 01:44:50;;;;;;;;;;;;;;;5.96;100.00;96984.19;5071841;28;19960;-60
2022/11/21 01:47:16;;;;;;;;;;;;;;;5.95;100.00;96977.28;5071974;28;20000;-60
2022/11/21 01:49:45;;;;;;;;;;;;;;;5.78;100.00;96980.06;5071673;28;19925;-59
2022/11/21 01:52:13;;;;;;;;;;;;;;;6.05;100.00;96981.84;5070219;28;19929;-60
2022/11/21 01:54:41;;;;;;;;;;;;;;;5.95;100.00;96990.53;5067851;28;19955;-60
2022/11/21 01:57:10;;;;;;;;;;;;;;;6.00;100.00;96972.03;5063270;28;19980;-60
2022/11/21 01:59:40;;;;;;;;;;;;;;;6.00;100.00;96973.88;5071394;28;19964;-61
2022/11/21 02:02:08;;;;;;;;;;;;;;;6.00;100.00;96976.53;5071398;28;19925;-60
2022/11/21 02:04:35;;;;;;;;;;;;;;;5.90;100.00;96977.25;5071147;28;19960;-60
2022/11/21 02:07:04;;;;;;;;;;;;;;;6.07;100.00;96972.59;5071327;28;20572;-60
2022/11/21 02:09:31;;;;;;;;;;;;;;;6.11;100.00;96967.56;5071261;28;19978;-60
2022/11/21 02:12:00;;;;;;;;;;;;;;;6.10;100.00;96971.25;5071030;28;19925;-60
2022/11/21 02:14:27;;;;;;;;;;;;;;;6.02;100.00;96964.63;5070917;28;19932;-60
2022/11/21 02:16:56;;;;;;;;;;;;;;;5.95;100.00;96961.38;5070887;28;19984;-62
2022/11/21 02:19:27;;;;;;;;;;;;;;;6.00;100.00;96961.44;5071088;28;19925;-61
2022/11/21 02:21:55;;;;;;;;;;;;;;;6.00;100.00;96958.78;5070566;28;19932;-60
2022/11/21 02:24:28;;;;;;;;;;;;;;;5.91;100.00;96960.31;5065394;28;19971;-63
2022/11/21 02:26:56;;;;;;;;;;;;;;;5.88;100.00;96958.94;5070699;28;19992;-59
2022/11/21 02:29:22;;;;;;;;;;;;;;;5.98;100.00;96959.03;5071035;28;19968;-59
2022/11/21 02:31:48;;;;;;;;;;;;;;;6.12;100.00;96964.69;5070698;28;19997;-59
2022/11/21 02:34:15;;;;;;;;;;;;;;;6.22;100.00;96954.09;5070718;28;19990;-59
2022/11/21 02:36:43;;;;;;;;;;;;;;;6.16;100.00;96941.09;5070739;28;20115;-59
2022/11/21 02:39:11;;;;;;;;;;;;;;;6.21;100.00;96951.72;5062650;28;19992;-59
2022/11/21 02:41:41;;;;;;;;;;;;;;;6.20;100.00;96950.13;5070498;28;19971;-60
2022/11/21 02:44:12;;;;;;;;;;;;;;;6.18;100.00;96944.28;5062305;28;19952;-60
2022/11/21 02:46:46;;;;;;;;;;;;;;;6.08;100.00;96952.97;5069440;28;19968;-59
2022/11/21 02:49:12;;;;;;;;;;;;;;;6.25;100.00;96932.38;5062740;28;19993;-61
2022/11/21 02:51:39;;;;;;;;;;;;;;;6.06;100.00;96933.91;5070248;28;19927;-60
2022/11/21 02:54:05;;;;;;;;;;;;;;;6.35;100.00;96943.03;5064572;28;20345;-60
2022/11/21 02:56:31;;;;;;;;;;;;;;;6.05;100.00;96942.91;5070208;28;19984;-59
2022/11/21 02:58:58;;;;;;;;;;;;;;;6.12;100.00;96954.06;5070144;28;20226;-60
2022/11/21 03:01:25;;;;;;;;;;;;;;;6.41;100.00;96946.50;5070231;28;20017;-60
2022/11/21 03:03:52;;;;;;;;;;;;;;;5.87;100.00;96945.97;5069986;28;19929;-59
2022/11/21 03:06:18;;;;;;;;;;;;;;;5.94;100.00;96946.56;5070136;28;19936;-59
2022/11/21 03:08:45;;;;;;;;;;;;;;;6.03;100.00;96950.31;5070136;28;19952;-59
2022/11/21 03:11:11;;;;;;;;;;;;;;;5.86;100.00;96952.31;5070181;28;19932;-59
2022/11/21 03:13:38;;;;;;;;;;;;;;;6.04;100.00;96945.78;5069788;28;19956;-59
2022/11/21 03:16:04;;;;;;;;;;;;;;;6.00;100.00;96942.06;5069945;28;19925;-60
2022/11/21 03:18:32;;;;;;;;;;;;;;;5.94;100.00;96938.59;5069832;28;19971;-59
2022/11/21 03:20:58;;;;;;;;;;;;;;;6.05;100.00;96940.25;5069700;28;19993;-60
2022/11/21 03:23:24;;;;;;;;;;;;;;;6.10;100.00;96934.97;5063947;28;19976;-59
2022/11/21 03:25:51;;;;;;;;;;;;;;;6.01;100.00;96935.69;5069819;28;19932;-59
2022/11/21 03:28:17;;;;;;;;;;;;;;;6.06;100.00;96925.94;5069772;28;19992;-60
2022/11/21 03:30:43;;;;;;;;;;;;;;;5.97;100.00;96928.25;5069518;28;19929;-60
2022/11/21 03:33:10;;;;;;;;;;;;;;;6.00;100.00;96926.97;5069601;28;19992;-60
2022/11/21 03:35:37;;;;;;;;;;;;;;;5.94;100.00;96922.72;5069459;28;19929;-60
2022/11/21 03:38:04;;;;;;;;;;;;;;;5.98;100.00;96921.13;5069383;28;20013;-59
2022/11/21 03:40:30;;;;;;;;;;;;;;;6.09;100.00;96920.13;5069231;28;19920;-59
2022/11/21 03:42:57;;;;;;;;;;;;;;;5.91;100.00;96924.00;5069162;28;19932;-59
2022/11/21 03:45:23;;;;;;;;;;;;;;;5.91;100.00;96915.28;5068943;28;19935;-58
2022/11/21 03:47:49;;;;;;;;;;;;;;;6.08;100.00;96915.06;5069078;28;19925;-59
2022/11/21 03:50:17;;;;;;;;;;;;;;;6.17;100.00;96909.03;5069333;28;19935;-58
2022/11/21 03:52:45;;;;;;;;;;;;;;;5.94;100.00;96907.59;5063362;28;19952;-59
2022/11/21 03:55:11;;;;;;;;;;;;;;;6.04;100.00;96917.44;5069067;28;20035;-59
2022/11/21 03:57:38;;;;;;;;;;;;;;;6.15;100.00;96905.84;5068733;28;19956;-60
2022/11/21 04:00:05;;;;;;;;;;;;;;;6.11;100.00;96893.34;5069090;28;19996;-59
2022/11/21 04:02:31;;;;;;;;;;;;;;;6.07;100.00;96887.78;5069002;28;19925;-60
2022/11/21 04:04:58;;;;;;;;;;;;;;;6.14;100.00;96893.63;5068839;28;19985;-60
2022/11/21 04:07:24;;;;;;;;;;;;;;;6.19;100.00;96891.00;5051047;28;19931;-61
2022/11/21 04:09:52;;;;;;;;;;;;;;;6.17;100.00;96887.00;5068933;28;19925;-60
2022/11/21 04:12:18;;;;;;;;;;;;;;;6.07;100.00;96887.78;5069180;28;20007;-60
2022/11/21 04:14:45;;;;;;;;;;;;;;;6.08;100.00;96884.06;5069057;28;20000;-61
2022/11/21 04:17:11;;;;;;;;;;;;;;;6.03;100.00;96886.72;5069130;28;19925;-60
2022/11/21 04:19:37;;;;;;;;;;;;;;;6.05;100.00;96889.09;5068624;28;19995;-60
2022/11/21 04:22:04;;;;;;;;;;;;;;;5.98;100.00;96879.53;5068231;28;19959;-61
2022/11/21 04:24:30;;;;;;;;;;;;;;;6.07;100.00;96884.31;5063533;28;19956;-60
2022/11/21 04:26:58;;;;;;;;;;;;;;;6.00;100.00;96892.53;5068683;28;19928;-60
2022/11/21 04:29:24;;;;;;;;;;;;;;;6.09;100.00;96890.97;5068850;28;19936;-60
2022/11/21 04:31:50;;;;;;;;;;;;;;;6.16;100.00;96891.50;5068782;28;19996;-59
2022/11/21 04:34:17;;;;;;;;;;;;;;;6.17;100.00;96897.63;5068638;28;20423;-60
2022/11/21 04:36:43;;;;;;;;;;;;;;;6.00;100.00;96887.22;5068603;28;19975;-59
2022/11/21 04:39:09;;;;;;;;;;;;;;;6.02;100.00;96885.09;5068773;28;19984;-59
2022/11/21 04:41:36;;;;;;;;;;;;;;;6.05;100.00;96879.28;5068656;28;19956;-59
2022/11/21 04:44:04;;;;;;;;;;;;;;;6.21;100.00;96885.44;5068561;28;19928;-60
2022/11/21 04:46:30;;;;;;;;;;;;;;;6.18;100.00;96878.81;5068755;28;19925;-60
2022/11/21 04:48:56;;;;;;;;;;;;;;;6.08;100.00;96873.47;5068594;28;19925;-59
2022/11/21 04:51:22;;;;;;;;;;;;;;;5.99;100.00;96869.72;5050765;28;19972;-59
2022/11/21 04:53:49;;;;;;;;;;;;;;;5.98;100.00;96871.56;5062875;28;19925;-60
2022/11/21 04:56:15;;;;;;;;;;;;;;;6.09;100.00;96875.06;5068331;28;20332;-60
2022/11/21 04:58:42;;;;;;;;;;;;;;;6.05;100.00;96873.19;5068420;28;19952;-60
2022/11/21 05:01:09;;;;;;;;;;;;;;;6.14;100.00;96875.09;5060408;28;19988;-60
2022/11/21 05:03:36;;;;;;;;;;;;;;;6.09;100.00;96880.38;5068214;28;19924;-60
2022/11/21 05:06:02;;;;;;;;;;;;;;;6.04;100.00;96867.09;5068342;28;19992;-59
2022/11/21 05:08:29;;;;;;;;;;;;;;;6.04;100.00;96861.78;5068378;28;19928;-59
2022/11/21 05:13:39;;;;;;;;;;;;;;;6.11;100.00;96869.50;5071921;28;19943;-60
2022/11/21 05:16:05;;;;;;;;;;;;;;;6.06;100.00;96875.59;5072025;28;19960;-60
2022/11/21 05:18:33;;;;;;;;;;;;;;;6.01;100.00;96880.06;5071727;28;19997;-60
2022/11/21 05:21:00;;;;;;;;;;;;;;;5.86;100.00;96870.19;5072018;28;19988;-59
2022/11/21 05:23:27;;;;;;;;;;;;;;;5.83;100.00;96855.59;5065790;28;19924;-60
2022/11/21 05:25:53;;;;;;;;;;;;;;;5.85;100.00;96866.72;5071753;28;19993;-59
2022/11/21 05:28:20;;;;;;;;;;;;;;;5.85;100.00;96873.84;5071920;28;19976;-59
2022/11/21 05:30:46;;;;;;;;;;;;;;;5.90;100.00;96879.22;5071811;28;20342;-60
2022/11/21 05:33:12;;;;;;;;;;;;;;;5.98;100.00;96878.72;5071872;28;19929;-60
2022/11/21 05:35:40;;;;;;;;;;;;;;;6.05;100.00;96879.28;5071625;28;19993;-59
2022/11/21 05:38:06;;;;;;;;;;;;;;;6.00;100.00;96887.22;5071727;28;20046;-59
2022/11/21 05:40:33;;;;;;;;;;;;;;;6.05;100.00;96878.50;5071527;28;20438;-60
2022/11/21 05:45:43;;;;;;;;;;;;;;;6.01;100.00;96888.00;5071284;28;19929;-60
2022/11/21 05:48:09;;;;;;;;;;;;;;;6.05;100.00;96874.00;5071345;28;20638;-59
2022/11/21 05:50:36;;;;;;;;;;;;;;;6.04;100.00;96871.59;5071348;28;19971;-59
2022/11/21 05:53:04;;;;;;;;;;;;;;;6.04;100.00;96861.78;5065647;28;19927;-60
2022/11/21 05:55:31;;;;;;;;;;;;;;;6.08;100.00;96857.56;5071244;28;19924;-61
2022/11/21 05:57:58;;;;;;;;;;;;;;;5.91;100.00;96862.28;5071323;28;19991;-60
2022/11/21 06:00:24;;;;;;;;;;;;;;;5.99;100.00;96861.78;5071271;28;19928;-59
2022/11/21 06:05:34;;;;;;;;;;;;;;;6.10;100.00;96862.59;5071128;28;20000;-61
2022/11/21 06:08:01;;;;;;;;;;;;;;;5.97;100.00;96866.53;5070917;28;19984;-59
2022/11/21 06:10:28;;;;;;;;;;;;;;;5.86;100.00;96859.59;5071007;28;19979;-59
2022/11/21 06:12:55;;;;;;;;;;;;;;;6.01;100.00;96872.91;5070935;28;19920;-60
2022/11/21 06:15:21;;;;;;;;;;;;;;;5.97;100.00;96866.53;5070806;28;19925;-60
2022/11/21 06:17:47;;;;;;;;;;;;;;;6.00;100.00;96876.63;5070873;28;19980;-60
2022/11/21 06:20:14;;;;;;;;;;;;;;;6.02;100.00;96871.06;5070874;28;19993;-60
2022/11/21 06:22:40;;;;;;;;;;;;;;;6.05;100.00;96868.69;5065184;28;19985;-60
2022/11/21 06:25:07;;;;;;;;;;;;;;;5.97;100.00;96871.84;5070491;28;19960;-60
2022/11/21 06:27:34;;;;;;;;;;;;;;;5.88;100.00;96863.56;5070608;28;19920;-59
2022/11/21 06:30:01;;;;;;;;;;;;;;;6.07;100.00;96869.22;5070583;28;20012;-59
2022/11/21 06:32:27;;;;;;;;;;;;;;;5.98;100.00;96870.78;5070565;28;19999;-60
2022/11/21 06:34:54;;;;;;;;;;;;;;;5.87;100.00;96872.59;5070450;28;19988;-60
2022/11/21 06:37:20;;;;;;;;;;;;;;;6.00;100.00;96881.13;5070435;28;19980;-61
2022/11/21 06:39:47;;;;;;;;;;;;;;;6.03;100.00;96865.50;5070036;28;19963;-60
2022/11/21 06:42:13;;;;;;;;;;;;;;;6.01;100.00;96867.59;5070227;28;19936;-59
2022/11/21 06:44:41;;;;;;;;;;;;;;;6.05;100.00;96868.69;5069859;28;19995;-59
2022/11/21 06:47:07;;;;;;;;;;;;;;;5.94;100.00;96880.31;5070036;28;19964;-59
2022/11/21 06:49:34;;;;;;;;;;;;;;;6.01;100.00;96878.19;5070181;28;19948;-59
2022/11/21 06:52:00;;;;;;;;;;;;;;;6.01;100.00;96883.50;5069904;28;19970;-60
2022/11/21 06:54:26;;;;;;;;;;;;;;;6.07;100.00;96887.78;5064255;28;20317;-59
2022/11/21 06:56:54;;;;;;;;;;;;;;;6.15;100.00;96881.19;5069782;28;19940;-60
2022/11/21 06:59:20;;;;;;;;;;;;;;;6.19;100.00;96891.00;5070037;28;19928;-59
2022/11/21 07:01:48;;;;;;;;;;;;;;;6.14;100.00;96883.03;5069881;28;20028;-59
2022/11/21 07:04:14;;;;;;;;;;;;;;;6.13;100.00;96896.56;5069806;28;19967;-60
2022/11/21 07:06:41;;;;;;;;;;;;;;;6.19;100.00;96890.22;5069648;28;20024;-59
2022/11/21 07:09:07;;;;;;;;;;;;;;;6.23;100.00;96893.94;5069819;28;20055;-60
2022/11/21 07:11:34;;;;;;;;;;;;;;;6.26;100.00;96890.75;5068501;28;19980;-60
2022/11/21 07:14:00;;;;;;;;;;;;;;;6.24;100.00;96887.56;5069566;28;19993;-61
2022/11/21 07:16:29;;;;;;;;;;;;;;;6.23;100.00;96892.06;5069880;28;19925;-59
2022/11/21 07:18:57;;;;;;;;;;;;;;;6.21;100.00;96888.09;5069579;28;19990;-61
2022/11/21 07:21:23;;;;;;;;;;;;;;;6.29;100.00;96890.22;5069787;28;19950;-60
2022/11/21 07:23:50;;;;;;;;;;;;;;;6.29;100.00;96893.69;5063507;28;19925;-59
2022/11/21 07:26:16;;;;;;;;;;;;;;;6.36;100.00;96898.75;5069590;28;20024;-61
2022/11/21 07:28:43;;;;;;;;;;;;;;;6.32;100.00;96901.13;5069465;28;19925;-60
2022/11/21 07:31:10;;;;;;;;;;;;;;;6.21;100.00;96906.66;5061317;28;19959;-60
2022/11/21 07:33:37;;;;;;;;;;;;;;;6.15;100.00;96911.16;5068791;28;19988;-60
2022/11/21 07:36:05;;;;;;;;;;;;;;;6.20;100.00;96900.56;5069162;28;20027;-60
2022/11/21 07:38:31;;;;;;;;;;;;;;;6.07;100.00;96908.97;5069598;28;20373;-60
2022/11/21 07:40:57;;;;;;;;;;;;;;;5.92;100.00;96907.06;5069383;28;19988;-59
2022/11/21 07:43:24;;;;;;;;;;;;;;;6.10;100.00;96912.94;5069314;28;19952;-60
2022/11/21 07:45:50;;;;;;;;;;;;;;;6.25;100.00;96913.81;5069361;28;20426;-61
2022/11/21 07:48:16;;;;;;;;;;;;;;;6.29;100.00;96925.50;5069486;28;19925;-59
2022/11/21 07:50:43;;;;;;;;;;;;;;;6.27;100.00;96926.81;5069173;28;19956;-60
2022/11/21 07:53:12;;;;;;;;;;;;;;;6.11;100.00;96918.00;5055403;28;19987;-60
2022/11/21 07:55:38;;;;;;;;;;;;;;;6.19;100.00;96922.81;5068913;28;19935;-59
2022/11/21 07:58:05;;;;;;;;;;;;;;;6.19;100.00;96928.09;5069077;28;19940;-59
2022/11/21 08:00:32;;;;;;;;;;;;;;;6.38;100.00;96926.59;5068880;28;19999;-60
2022/11/21 08:02:59;;;;;;;;;;;;;;;6.44;100.00;96933.50;5068702;28;19931;-59
2022/11/21 08:05:25;;;;;;;;;;;;;;;6.40;100.00;96919.19;5068933;28;19929;-60
2022/11/21 08:07:52;;;;;;;;;;;;;;;6.39;100.00;96922.09;5068805;28;19921;-59
2022/11/21 08:10:19;;;;;;;;;;;;;;;6.40;100.00;96915.75;5068894;28;19925;-59
2022/11/21 08:12:46;;;;;;;;;;;;;;;6.47;100.00;96910.97;5068925;28;19936;-60
2022/11/21 08:15:12;;;;;;;;;;;;;;;6.45;100.00;96921.84;5068924;28;20001;-61
2022/11/21 08:17:39;;;;;;;;;;;;;;;6.36;100.00;96912.00;5068776;28;20061;-61
2022/11/21 08:20:06;;;;;;;;;;;;;;;6.45;100.00;96905.16;5068675;28;19956;-60
2022/11/21 08:22:32;;;;;;;;;;;;;;;6.53;100.00;96901.19;5064255;28;19921;-60
2022/11/21 08:24:58;;;;;;;;;;;;;;;6.46;100.00;96904.91;5067367;28;20067;-59
2022/11/21 08:27:26;;;;;;;;;;;;;;;6.45;100.00;96900.66;5068607;28;19925;-60
2022/11/21 08:29:52;;;;;;;;;;;;;;;6.46;100.00;96915.50;5068714;28;19992;-60
2022/11/21 08:32:19;;;;;;;;;;;;;;;6.52;100.00;96911.00;5068655;28;20014;-60
2022/11/21 08:34:45;;;;;;;;;;;;;;;6.56;100.00;96909.41;5068693;28;19996;-60
2022/11/21 08:37:11;;;;;;;;;;;;;;;6.47;100.00;96903.03;5068438;28;19959;-60
2022/11/21 08:39:38;;;;;;;;;;;;;;;6.49;100.00;96904.38;5068533;28;19988;-59
2022/11/21 08:42:04;;;;;;;;;;;;;;;6.55;100.00;96915.78;5068531;28;19928;-60
2022/11/21 08:44:33;;;;;;;;;;;;;;;6.57;100.00;96908.34;5070087;28;19925;-60
2022/11/21 08:46:59;;;;;;;;;;;;;;;6.63;100.00;96915.28;5072454;28;19994;-60
2022/11/21 08:49:26;;;;;;;;;;;;;;;6.44;100.00;96914.16;5072488;28;20056;-60
2022/11/21 08:51:52;;;;;;;;;;;;;;;6.59;100.00;96921.38;5072402;28;19964;-61
2022/11/21 08:54:19;;;;;;;;;;;;;;;6.42;100.00;96903.00;5066721;28;20576;-60
2022/11/21 08:56:45;;;;;;;;;;;;;;;6.41;100.00;96912.81;5072441;28;19968;-59
2022/11/21 08:59:12;;;;;;;;;;;;;;;6.46;100.00;96922.66;5072554;28;20395;-61
2022/11/21 09:01:39;;;;;;;;;;;;;;;6.51;100.00;96914.72;5072200;28;19939;-59
2022/11/21 09:04:06;;;;;;;;;;;;;;;6.48;100.00;96921.34;5072161;28;19936;-60
2022/11/21 09:06:32;;;;;;;;;;;;;;;6.52;100.00;96926.91;5072141;28;19960;-60
2022/11/21 09:08:59;;;;;;;;;;;;;;;6.59;100.00;96927.47;5072106;28;19932;-60
2022/11/21 09:11:25;;;;;;;;;;;;;;;6.51;100.00;96912.84;5072194;28;19991;-59
2022/11/21 09:19:18;;;;;;;;;;;;;;;6.77;100.00;96931.50;5064730;28;19924;-60
2022/11/21 09:21:45;;;;;;;;;;;;;;;6.76;100.00;96938.66;5071829;28;19924;-60
2022/11/21 09:24:11;;;;;;;;;;;;;;;6.65;100.00;96947.66;5066400;28;19932;-60
2022/11/21 09:26:37;;;;;;;;;;;;;;;6.48;100.00;96939.91;5072060;28;19925;-60
2022/11/21 09:29:04;;;;;;;;;;;;;;;6.62;100.00;96952.69;5071797;28;19980;-60
2022/11/21 09:31:30;;;;;;;;;;;;;;;6.85;100.00;96958.31;5071929;28;19956;-60
2022/11/21 09:33:56;;;;;;;;;;;;;;;6.62;100.00;96950.84;5071682;28;19957;-59
2022/11/21 09:36:24;;;;;;;;;;;;;;;6.80;100.00;96960.16;5071798;28;19992;-60
2022/11/21 09:38:51;;;;;;;;;;;;;;;6.94;100.00;96953.28;5071602;28;19956;-59
2022/11/21 09:44:12;;;;;;;;;;;;;;;6.76;100.00;96943.16;5071661;28;20032;-60
2022/11/21 09:46:44;;;;;;;;;;;;;;;6.89;100.00;96947.97;5072173;28;19957;-59
2022/11/21 09:49:12;;;;;;;;;;;;;;;6.96;100.00;96945.88;5063917;28;19975;-61
2022/11/21 09:51:41;;;;;;;;;;;;;;;6.98;100.00;96946.41;5071504;28;19925;-60
2022/11/21 09:54:13;;;;;;;;;;;;;;;7.02;100.00;96947.47;5065542;28;19924;-58
2022/11/21 09:56:41;;;;;;;;;;;;;;;7.16;100.00;96942.44;5070933;28;19935;-60
2022/11/21 09:59:12;;;;;;;;;;;;;;;7.27;100.00;96944.81;5071290;28;19921;-60
2022/11/21 10:01:39;;;;;;;;;;;;;;;7.06;100.00;96948.53;5071217;28;19996;-60
2022/11/21 10:04:05;;;;;;;;;;;;;;;7.17;100.00;96936.88;5071120;28;19928;-59
2022/11/21 10:06:32;;;;;;;;;;;;;;;7.01;100.00;96941.38;5071220;28;19956;-60
2022/11/21 10:09:03;;;;;;;;;;;;;;;6.91;100.00;96937.88;5070813;28;19925;-60
2022/11/21 10:11:34;;;;;;;;;;;;;;;7.07;100.00;96939.50;5070943;28;19970;-59
2022/11/21 10:14:09;;;;;;;;;;;;;;;7.15;100.00;96936.31;5070673;28;19979;-60
2022/11/21 10:16:41;;;;;;;;;;;;;;;7.14;100.00;96928.63;5070601;28;19970;-60
2022/11/21 10:19:20;;;;;;;;;;;;;;;6.97;100.00;96928.88;5070777;28;20024;-59
2022/11/21 10:21:52;;;;;;;;;;;;;;;7.34;100.00;96928.63;5070306;28;19929;-60
2022/11/21 10:24:37;;;;;;;;;;;;;;;7.21;100.00;96924.63;5064923;28;19925;-60
2022/11/21 10:27:07;;;;;;;;;;;;;;;7.44;100.00;96924.13;5070652;28;19929;-61
2022/11/21 10:29:36;;;;;;;;;;;;;;;7.11;100.00;96923.84;5070481;28;19924;-59
2022/11/21 10:32:04;;;;;;;;;;;;;;;7.11;100.00;96931.81;5070763;28;20008;-60
2022/11/21 10:34:35;;;;;;;;;;;;;;;7.17;100.00;96923.59;5070599;28;20016;-59
2022/11/21 10:37:02;;;;;;;;;;;;;;;7.45;100.00;96939.00;5070582;28;19925;-59
2022/11/21 10:39:34;;;;;;;;;;;;;;;7.38;100.00;96914.56;5070423;28;19948;-59
2022/11/21 10:42:05;;;;;;;;;;;;;;;7.66;100.00;96915.06;5070314;28;20003;-59
2022/11/21 10:47:26;;;;;;;;;;;;;;;7.57;100.00;96902.34;5063061;28;19925;-60
2022/11/21 10:49:53;;;;;;;;;;;;;;;7.45;100.00;96899.16;5070671;28;19936;-59
2022/11/21 10:52:23;;;;;;;;;;;;;;;7.24;100.00;96908.16;5068363;28;20000;-60
2022/11/21 10:55:04;;;;;;;;;;;;;;;7.46;100.00;96905.25;5067838;28;19929;-59
2022/11/21 10:57:33;;;;;;;;;;;;;;;7.42;100.00;96909.50;5067520;28;19924;-60
2022/11/21 11:00:01;;;;;;;;;;;;;;;7.29;100.00;96900.22;5070242;28;19924;-60
2022/11/21 11:02:27;;;;;;;;;;;;;;;7.67;100.00;96901.53;5070227;28;19964;-60
2022/11/21 11:05:08;;;;;;;;;;;;;;;7.80;100.00;96898.28;5069858;28;19935;-60
2022/11/21 11:07:35;;;;;;;;;;;;;;;7.87;100.00;96874.09;5069158;28;19932;-60
2022/11/21 11:10:14;;;;;;;;;;;;;;;7.91;100.00;96870.63;5070036;28;19964;-59
2022/11/21 11:15:27;;;;;;;;;;;;;;;7.64;100.00;96869.38;5063693;28;19955;-60
2022/11/21 11:17:55;;;;;;;;;;;;;;;7.75;100.00;96870.94;5069687;28;19925;-60
2022/11/21 11:20:30;;;;;;;;;;;;;;;7.73;100.00;96865.09;5069642;28;20023;-61
2022/11/21 11:22:56;;;;;;;;;;;;;;;8.00;100.00;96862.88;5063513;28;20348;-60
2022/11/21 11:25:23;;;;;;;;;;;;;;;8.09;100.00;96883.31;5069841;28;20003;-60
2022/11/21 11:27:50;;;;;;;;;;;;;;;7.99;100.00;96877.22;5069465;28;19997;-60
2022/11/21 11:30:18;;;;;;;;;;;;;;;7.87;100.00;96868.75;5069554;28;20001;-59
2022/11/21 11:32:44;;;;;;;;;;;;;;;7.85;100.00;96886.84;5069416;28;19932;-60
2022/11/21 11:35:20;;;;;;;;;;;;;;;7.85;100.00;96877.03;5069515;28;20445;-60
2022/11/21 11:37:50;;;;;;;;;;;;;;;7.71;100.00;96885.81;5069201;28;20369;-60
2022/11/21 11:40:19;;;;;;;;;;;;;;;7.76;100.00;96873.34;5069175;28;19988;-60
2022/11/21 11:48:38;;;;;;;;;;;;;;;7.64;100.00;96870.19;5063849;28;19953;-60
2022/11/21 11:51:09;;;;;;;;;;;;;;;7.83;100.00;96862.41;5069217;28;19938;-59
2022/11/21 11:53:39;;;;;;;;;;;;;;;7.68;100.00;96860.56;5063122;28;19931;-60
2022/11/21 11:56:11;;;;;;;;;;;;;;;8.00;100.00;96847.72;5068878;28;20027;-59
2022/11/21 11:58:40;;;;;;;;;;;;;;;8.22;100.00;96850.03;5069030;28;19936;-60
2022/11/21 12:01:10;;;;;;;;;;;;;;;8.28;100.00;96845.50;5069074;28;19971;-59
2022/11/21 12:03:40;;;;;;;;;;;;;;;8.18;100.00;96842.84;5069034;28;20134;-60
2022/11/21 12:06:11;;;;;;;;;;;;;;;7.94;100.00;96848.81;5069120;28;19925;-60
2022/11/21 12:08:40;;;;;;;;;;;;;;;7.86;100.00;96856.56;5051231;28;19985;-60
2022/11/21 12:13:56;;;;;;;;;;;;;;;8.12;100.00;96842.09;5068952;28;19924;-59
2022/11/21 12:16:25;;;;;;;;;;;;;;;7.96;100.00;96830.72;5068893;28;19927;-60
2022/11/21 12:18:56;;;;;;;;;;;;;;;7.80;100.00;96825.75;5068831;28;20004;-60
2022/11/21 12:21:22;;;;;;;;;;;;;;;7.99;100.00;96824.06;5068831;28;19975;-60
2022/11/21 12:23:50;;;;;;;;;;;;;;;8.11;100.00;96827.19;5062678;28;19956;-60
2022/11/21 12:26:26;;;;;;;;;;;;;;;8.03;100.00;96827.78;5068828;28;19929;-59
2022/11/21 12:28:59;;;;;;;;;;;;;;;8.10;100.00;96820.31;5068586;28;19936;-60
2022/11/21 12:31:31;;;;;;;;;;;;;;;8.15;100.00;96817.59;5068644;28;19925;-60
2022/11/21 12:34:04;;;;;;;;;;;;;;;7.83;100.00;96815.34;5068654;28;19989;-60
2022/11/21 12:36:35;;;;;;;;;;;;;;;8.29;100.00;96817.84;5068687;28;19960;-59
2022/11/21 12:39:09;;;;;;;;;;;;;;;7.87;100.00;96815.59;5068585;28;19980;-59
2022/11/21 12:44:29;;;;;;;;;;;;;;;8.12;100.00;96807.53;5077480;28;19931;-59
2022/11/21 12:47:01;;;;;;;;;;;;;;;8.29;100.00;96805.34;5068515;28;19971;-60
2022/11/21 12:55:12;;;;;;;;;;;;;;;7.81;100.00;96801.56;5067726;28;20194;-59
2022/11/21 12:57:59;;;;;;;;;;;;;;;7.86;100.00;96808.72;5068459;28;19960;-60
2022/11/21 13:00:28;;;;;;;;;;;;;;;7.72;100.00;96787.22;5062432;28;19980;-59
2022/11/21 13:03:14;;;;;;;;;;;;;;;8.02;100.00;96796.94;5068362;28;19960;-60
2022/11/21 13:05:45;;;;;;;;;;;;;;;7.91;100.00;96788.22;5068272;28;19924;-60
2022/11/21 13:08:14;;;;;;;;;;;;;;;7.75;100.00;96794.66;5060223;28;19988;-60
2022/11/21 13:10:46;;;;;;;;;;;;;;;7.83;100.00;96788.00;5068101;28;19963;-59
2022/11/21 13:13:18;;;;;;;;;;;;;;;7.77;100.00;96779.22;5060280;28;19931;-61
2022/11/21 13:15:49;;;;;;;;;;;;;;;7.89;100.00;96774.41;5068185;28;19935;-59
2022/11/21 13:18:19;;;;;;;;;;;;;;;7.87;100.00;96778.41;5068396;28;19932;-60
2022/11/21 13:20:48;;;;;;;;;;;;;;;7.89;100.00;96763.00;5068288;28;20024;-60
2022/11/21 13:23:29;;;;;;;;;;;;;;;8.05;100.00;96759.16;5062212;28;19935;-59
2022/11/21 13:25:55;;;;;;;;;;;;;;;8.03;100.00;96754.13;5067492;28;20015;-59
2022/11/21 13:28:30;;;;;;;;;;;;;;;8.13;100.00;96755.94;5068190;28;19925;-60
2022/11/21 13:30:57;;;;;;;;;;;;;;;8.16;100.00;96760.72;5070556;28;19925;-60
2022/11/21 13:33:42;;;;;;;;;;;;;;;8.26;100.00;96754.53;5071748;28;19928;-60